createdAt,value
2022-09-30T00:06:48.957Z,12.1
2022-09-30T00:20:48.961Z,12.2
2022-09-30T00:34:48.958Z,12.1
2022-09-30T00:48:49.032Z,12.0
2022-09-30T01:02:49.210Z,12.1
2022-09-30T01:16:49.111Z,11.9
2022-09-30T01:30:49.098Z,12.0
2022-09-30T01:44:49.113Z,12.0
2022-09-30T01:58:49.112Z,12.1
2022-09-30T02:12:49.139Z,12.4
2022-09-30T02:26:49.120Z,12.7
2022-09-30T02:40:49.114Z,12.7
2022-09-30T02:54:49.133Z,12.6
2022-09-30T03:08:49.131Z,12.6
2022-09-30T03:22:49.144Z,12.5
2022-09-30T03:36:49.173Z,12.5
2022-09-30T03:50:49.170Z,12.5
2022-09-30T04:04:49.201Z,12.3
2022-09-30T04:18:49.218Z,12.7
2022-09-30T04:32:49.282Z,12.8
2022-09-30T04:46:49.307Z,12.8
2022-09-30T05:00:49.438Z,12.5
2022-09-30T05:15:49.437Z,12.6
2022-09-30T05:30:49.368Z,12.8
2022-09-30T05:46:49.391Z,12.4
2022-09-30T06:01:49.476Z,12.3
2022-09-30T06:16:49.407Z,12.5
2022-09-30T06:31:49.422Z,12.9
2022-09-30T06:46:53.447Z,13.5
2022-09-30T07:01:49.427Z,13.9
2022-09-30T07:16:49.478Z,14.8
2022-09-30T07:31:49.441Z,15.6
2022-09-30T07:46:49.418Z,15.7
2022-09-30T08:01:49.486Z,16.0
2022-09-30T08:16:49.506Z,16.2
2022-09-30T08:31:49.717Z,16.7
2022-09-30T08:46:49.649Z,17.0
2022-09-30T09:01:49.664Z,17.2
2022-09-30T09:16:49.656Z,17.4
2022-09-30T09:31:49.688Z,17.6
2022-09-30T09:46:49.671Z,17.6
2022-09-30T09:51:00.578Z,17.8
2022-09-30T10:00:10.242Z,17.8
2022-09-30T10:15:10.239Z,17.8
2022-09-30T10:30:10.244Z,18.2
2022-09-30T10:45:10.326Z,18.0
2022-09-30T11:00:10.494Z,18.5
2022-09-30T11:15:10.603Z,18.1
2022-09-30T11:30:10.624Z,18.1
2022-09-30T11:45:10.678Z,17.6
2022-09-30T12:00:10.833Z,16.9
2022-09-30T12:15:11.018Z,16.9
2022-09-30T12:30:11.035Z,17.1
2022-09-30T12:45:11.235Z,17.0
2022-09-30T13:01:11.344Z,16.6
2022-09-30T13:16:11.364Z,16.3
2022-09-30T13:31:11.529Z,16.1
2022-09-30T13:46:11.564Z,16.0
2022-09-30T14:01:11.613Z,15.9
2022-09-30T14:16:11.815Z,15.8
2022-09-30T14:31:11.739Z,15.7
2022-09-30T14:46:11.720Z,15.5
2022-09-30T15:01:11.722Z,15.4
2022-09-30T15:16:11.749Z,15.3
2022-09-30T15:31:11.707Z,15.1
2022-09-30T15:46:11.797Z,15.1
2022-09-30T16:01:11.746Z,15.2
2022-09-30T16:16:11.797Z,15.1
2022-09-30T16:31:11.764Z,15.0
2022-09-30T16:46:11.787Z,14.8
2022-09-30T17:01:11.896Z,14.5
2022-09-30T17:16:11.884Z,14.3
2022-09-30T17:31:11.899Z,14.0
2022-09-30T17:45:11.864Z,13.7
2022-09-30T17:59:11.831Z,13.4
2022-09-30T18:13:11.889Z,13.4
2022-09-30T18:27:11.985Z,13.5
2022-09-30T18:41:12.023Z,13.5
2022-09-30T18:55:11.996Z,13.5
2022-09-30T19:09:12.006Z,13.6
2022-09-30T19:23:12.051Z,13.5
2022-09-30T19:37:21.350Z,13.4
2022-09-30T19:51:12.066Z,13.5
2022-09-30T20:05:12.045Z,13.4
2022-09-30T20:19:12.047Z,13.4
2022-09-30T20:33:12.093Z,13.7
2022-09-30T20:47:12.096Z,13.7
2022-09-30T21:01:12.123Z,13.6
2022-09-30T21:15:12.107Z,13.7
2022-09-30T21:29:12.144Z,13.5
2022-09-30T21:43:12.163Z,13.6
2022-09-30T21:57:12.257Z,13.7
2022-09-30T22:11:12.333Z,13.8
2022-09-30T22:25:12.378Z,13.7
2022-09-30T22:39:12.267Z,13.7
2022-09-30T22:53:12.299Z,13.7
2022-09-30T23:07:12.282Z,13.6
2022-09-30T23:21:12.278Z,13.7
2022-09-30T23:35:12.320Z,13.5
2022-09-30T23:49:12.307Z,13.5
